Time;durP1;ratioP1;P1;durP2;ratioP2;P2;SDS_P1;SDS_P2;PMS_P1;PMS_P2;Temp;Humidity;BMP_temperature;BMP_pressure;BME280_temperature;BME280_humidity;BME280_pressure;Samples;Min_cycle;Max_cycle;Signal;HPM_P1;HPM_P2
2022/03/24 00:00:14;;;;;;;;;64.25;50.00;;;;;11.42;47.31;102644.31;5077272;27;45326;-71
2022/03/24 00:02:39;;;;;;;;;66.75;50.75;;;;;11.42;48.13;102657.50;5077608;27;45325;-71
2022/03/24 00:05:05;;;;;;;;;59.25;47.50;;;;;11.32;48.49;102642.50;5077870;27;45362;-71
2022/03/24 00:07:30;;;;;;;;;69.50;52.00;;;;;11.25;48.48;102636.28;5076956;27;46303;-71
2022/03/24 00:09:56;;;;;;;;;64.25;48.75;;;;;11.25;48.15;102640.69;5077086;27;45304;-71
2022/03/24 00:12:24;;;;;;;;;66.75;52.00;;;;;11.10;48.54;102623.94;5077387;27;45594;-71
2022/03/24 00:14:49;;;;;;;;;65.75;50.00;;;;;11.30;48.42;102646.91;5077611;27;45326;-71
2022/03/24 00:17:15;;;;;;;;;60.00;49.00;;;;;11.12;47.45;102631.84;5077193;27;45906;-71
2022/03/24 00:19:40;;;;;;;;;70.75;52.25;;;;;11.16;47.72;102654.72;5077145;28;45405;-71
2022/03/24 00:22:06;;;;;;;;;66.00;50.75;;;;;11.10;48.59;102652.06;5077189;27;45261;-71
2022/03/24 00:24:31;;;;;;;;;66.25;50.75;;;;;11.08;48.61;102654.69;5077224;27;45222;-71
2022/03/24 00:26:56;;;;;;;;;65.75;51.00;;;;;11.06;48.71;102645.88;5076972;27;45606;-71
2022/03/24 00:29:22;;;;;;;;;61.25;48.75;;;;;11.06;48.56;102645.00;5078091;27;45423;-71
2022/03/24 00:31:47;;;;;;;;;62.75;47.25;;;;;10.94;48.47;102630.00;5077376;27;45259;-71
2022/03/24 00:34:13;;;;;;;;;72.00;54.25;;;;;10.96;48.80;102642.31;5077581;27;45379;-71
2022/03/24 00:36:38;;;;;;;;;70.00;51.25;;;;;10.99;48.82;102646.69;5076878;27;46119;-71
2022/03/24 00:39:04;;;;;;;;;66.75;50.75;;;;;11.01;49.08;102641.44;5076854;27;45370;-71
2022/03/24 00:41:30;;;;;;;;;67.25;52.00;;;;;10.87;49.05;102625.56;5077273;27;45412;-71
2022/03/24 00:43:56;;;;;;;;;66.25;49.25;;;;;10.93;49.13;102650.19;5077144;27;45645;-71
2022/03/24 00:46:23;;;;;;;;;65.25;50.75;;;;;10.60;49.77;102593.78;5077214;28;46423;-71
2022/03/24 00:48:50;;;;;;;;;69.50;52.50;;;;;10.91;49.40;102648.44;5076772;27;45356;-71
2022/03/24 00:51:18;;;;;;;;;67.50;50.50;;;;;10.60;49.52;102598.13;5076800;27;45501;-71
2022/03/24 00:53:44;;;;;;;;;69.75;52.00;;;;;10.83;49.88;102632.53;5076973;27;45175;-71
2022/03/24 00:56:10;;;;;;;;;69.50;52.00;;;;;10.83;49.37;102626.41;5079097;27;45549;-71
2022/03/24 00:58:36;;;;;;;;;66.50;51.75;;;;;10.83;49.70;102619.38;5080396;27;45827;-71
2022/03/24 01:01:03;;;;;;;;;65.75;50.25;;;;;10.87;49.63;102629.06;5080048;27;45342;-71
2022/03/24 01:03:28;;;;;;;;;67.00;50.50;;;;;10.82;49.29;102622.91;5080383;27;45367;-71
2022/03/24 01:05:57;;;;;;;;;61.25;49.75;;;;;10.88;49.60;102627.34;5079910;27;46110;-71
2022/03/24 01:08:22;;;;;;;;;65.25;48.50;;;;;10.75;49.66;102616.69;5080040;27;45218;-71
2022/03/24 01:10:48;;;;;;;;;62.00;49.00;;;;;10.78;49.91;102624.63;5079787;27;45331;-71
2022/03/24 01:13:15;;;;;;;;;67.25;51.25;;;;;10.77;49.58;102632.50;5080161;27;45540;-71
2022/03/24 01:15:45;;;;;;;;;65.75;49.50;;;;;10.73;49.66;102631.63;5079791;27;46020;-71
2022/03/24 01:18:14;;;;;;;;;67.00;49.25;;;;;10.71;49.88;102630.72;5079982;28;45270;-71
2022/03/24 01:20:41;;;;;;;;;61.25;48.00;;;;;10.67;50.33;102634.19;5079795;27;45267;-71
2022/03/24 01:23:07;;;;;;;;;66.25;49.50;;;;;10.64;50.24;102623.63;5079903;27;45529;-71
2022/03/24 01:25:33;;;;;;;;;66.75;51.00;;;;;10.37;50.67;102583.06;5079602;27;46479;-71
2022/03/24 01:27:58;;;;;;;;;65.00;50.50;;;;;10.63;50.25;102635.06;5079664;27;45407;-71
2022/03/24 01:30:24;;;;;;;;;60.25;47.25;;;;;10.57;50.19;102628.00;5079716;27;45352;-71
2022/03/24 01:32:50;;;;;;;;;64.00;50.25;;;;;10.49;50.56;102623.53;5080018;27;45385;-71
2022/03/24 01:35:15;;;;;;;;;69.50;51.00;;;;;10.44;50.82;102608.56;5079375;27;47205;-71
2022/03/24 01:37:42;;;;;;;;;65.75;50.00;;;;;10.55;50.91;102624.44;5079646;27;45231;-71
2022/03/24 01:40:09;;;;;;;;;65.50;50.75;;;;;10.56;50.85;102620.94;5079503;27;45266;-71
2022/03/24 01:42:36;;;;;;;;;67.00;50.75;;;;;10.10;50.41;102547.69;5079682;27;45330;-71
2022/03/24 01:45:05;;;;;;;;;61.50;47.50;;;;;10.50;51.08;102610.38;5079407;27;45418;-71
2022/03/24 01:47:32;;;;;;;;;66.00;51.75;;;;;10.54;50.94;102619.16;5079314;27;45395;-71
2022/03/24 01:49:58;;;;;;;;;63.50;48.50;;;;;10.42;50.86;102604.16;5079338;27;45398;-71
2022/03/24 01:52:25;;;;;;;;;67.50;47.75;;;;;10.42;50.91;102622.59;5079560;27;45590;-71
2022/03/24 01:54:55;;;;;;;;;67.00;52.00;;;;;10.32;51.12;102611.06;5078960;27;46130;-71
2022/03/24 01:57:23;;;;;;;;;65.50;48.50;;;;;10.23;51.30;102595.19;5079403;28;45394;-71
2022/03/24 01:59:49;;;;;;;;;75.50;53.00;;;;;10.22;51.75;102596.97;5079297;27;45266;-71
2022/03/24 02:02:15;;;;;;;;;71.00;52.00;;;;;10.27;51.78;102599.63;5079240;28;45438;-71
2022/03/24 02:04:42;;;;;;;;;66.50;49.50;;;;;10.27;51.72;102604.88;5079117;27;46299;-71
2022/03/24 02:07:08;;;;;;;;;63.50;48.25;;;;;10.22;52.01;102604.84;5078365;27;45471;-71
2022/03/24 02:09:34;;;;;;;;;59.50;48.25;;;;;10.04;51.43;102579.22;5079016;27;45401;-71
2022/03/24 02:12:11;;;;;;;;;60.75;48.50;;;;;10.01;50.79;102591.50;5079327;27;45299;-71
2022/03/24 02:14:38;;;;;;;;;61.75;48.00;;;;;10.03;51.21;102606.41;5078830;27;46267;-71
2022/03/24 02:17:04;;;;;;;;;71.50;54.00;;;;;9.92;51.30;102592.28;5078975;27;45443;-71
2022/03/24 02:19:31;;;;;;;;;63.75;50.50;;;;;9.87;52.26;102593.97;5079072;27;45372;-71
2022/03/24 02:22:04;;;;;;;;;69.25;51.00;;;;;9.91;52.50;102604.53;5078580;27;45621;-71
2022/03/24 02:24:29;;;;;;;;;64.25;50.25;;;;;9.86;51.15;102597.47;5078900;27;45324;-71
2022/03/24 02:26:59;;;;;;;;;65.75;50.50;;;;;9.71;51.76;102574.53;5078651;27;45308;-71
2022/03/24 02:29:25;;;;;;;;;67.25;51.50;;;;;9.63;52.21;102579.72;5078770;27;45407;-71
2022/03/24 02:31:52;;;;;;;;;69.00;51.00;;;;;9.75;52.90;102605.25;5078971;27;45423;-72
2022/03/24 02:34:37;;;;;;;;;63.25;47.75;;;;;9.72;52.23;102603.47;5078613;27;45328;-72
2022/03/24 02:37:08;;;;;;;;;66.00;51.50;;;;;9.68;52.64;102604.31;5078402;27;45434;-72
2022/03/24 02:39:35;;;;;;;;;63.25;48.00;;;;;9.66;52.65;102611.31;5078598;27;45355;-72
2022/03/24 02:42:01;;;;;;;;;62.25;50.00;;;;;9.62;52.47;102606.88;5078756;27;45427;-72
2022/03/24 02:44:30;;;;;;;;;70.25;55.00;;;;;9.59;53.37;102607.72;5078417;27;45411;-72
2022/03/24 02:46:58;;;;;;;;;67.25;52.25;;;;;9.63;52.58;102613.00;5078208;27;45443;-72
2022/03/24 02:49:27;;;;;;;;;68.25;52.50;;;;;9.49;52.31;102591.81;5078385;27;45258;-72
2022/03/24 02:51:54;;;;;;;;;69.75;53.50;;;;;9.52;52.75;102602.38;5078378;27;45273;-72
2022/03/24 02:54:21;;;;;;;;;64.25;50.25;;;;;9.48;53.17;102600.56;5078312;27;46473;-72
2022/03/24 02:56:48;;;;;;;;;68.75;53.00;;;;;9.36;54.09;102586.41;5078039;27;45383;-72
2022/03/24 02:59:15;;;;;;;;;62.25;48.50;;;;;9.46;54.13;102602.31;5078258;28;45253;-72
2022/03/24 03:01:45;;;;;;;;;74.25;52.25;;;;;9.53;53.72;102610.28;5078407;27;46077;-72
2022/03/24 03:04:12;;;;;;;;;70.00;51.00;;;;;9.49;53.31;102608.47;5078024;27;47376;-71
2022/03/24 03:06:38;;;;;;;;;65.75;50.75;;;;;9.38;53.56;102602.19;5078104;27;45277;-71
2022/03/24 03:09:04;;;;;;;;;71.00;51.75;;;;;9.29;54.47;102592.44;5078304;27;45419;-71
2022/03/24 03:11:30;;;;;;;;;66.00;51.00;;;;;9.28;54.01;102589.81;5078306;28;45225;-71
2022/03/24 03:13:56;;;;;;;;;72.00;53.00;;;;;9.22;54.17;102586.25;5077783;27;46347;-71
2022/03/24 03:16:22;;;;;;;;;73.50;54.00;;;;;9.39;54.67;102612.72;5078022;27;45415;-71
2022/03/24 03:18:48;;;;;;;;;67.75;50.50;;;;;9.42;54.29;102611.91;5076964;27;45328;-72
2022/03/24 03:21:16;;;;;;;;;63.75;49.75;;;;;9.38;54.57;102612.72;5078130;27;45391;-71
2022/03/24 03:23:43;;;;;;;;;69.25;52.00;;;;;9.35;54.75;102602.16;5077787;27;45413;-71
2022/03/24 03:26:10;;;;;;;;;62.00;51.75;;;;;9.22;54.98;102585.34;5077728;27;45379;-71
2022/03/24 03:28:35;;;;;;;;;71.75;53.00;;;;;9.30;54.63;102599.47;5077958;27;45265;-72
2022/03/24 03:31:01;;;;;;;;;73.50;52.00;;;;;9.23;55.14;102601.16;5077957;27;45422;-71
2022/03/24 03:33:27;;;;;;;;;73.25;54.25;;;;;9.20;54.91;102590.59;5077839;27;46283;-71
2022/03/24 03:35:52;;;;;;;;;70.25;53.00;;;;;9.24;54.97;102602.03;5077731;27;45257;-71
2022/03/24 03:38:19;;;;;;;;;62.00;49.00;;;;;9.00;55.33;102573.69;5077715;27;45298;-71
2022/03/24 03:40:47;;;;;;;;;70.25;53.75;;;;;9.23;55.03;102605.53;5078063;27;45307;-71
2022/03/24 03:43:14;;;;;;;;;72.00;54.50;;;;;9.22;55.23;102606.38;5077547;28;46259;-71
2022/03/24 03:45:42;;;;;;;;;64.75;51.75;;;;;9.09;54.58;102591.31;5077595;27;45356;-71
2022/03/24 03:48:09;;;;;;;;;68.00;52.75;;;;;9.10;54.83;102607.09;5077535;27;45248;-71
2022/03/24 03:50:35;;;;;;;;;71.75;54.25;;;;;9.05;55.05;102591.28;5077548;27;45328;-71
2022/03/24 03:53:00;;;;;;;;;57.50;49.50;;;;;9.11;55.78;102608.00;5077547;27;45305;-71
2022/03/24 03:55:27;;;;;;;;;65.25;49.25;;;;;9.10;56.07;102603.59;5077303;27;45432;-71
2022/03/24 03:57:53;;;;;;;;;68.50;53.00;;;;;9.06;55.98;102605.28;5077583;27;45340;-71
2022/03/24 04:03:04;;;;;;;;;62.00;45.75;;;;;9.06;56.00;102614.09;5077248;28;45807;-71
2022/03/24 04:05:33;;;;;;;;;73.25;53.00;;;;;9.01;56.17;102604.38;5077235;27;45311;-71
2022/03/24 04:07:58;;;;;;;;;77.00;54.00;;;;;8.96;56.40;102606.03;5077408;27;45451;-71
2022/03/24 04:10:27;;;;;;;;;62.25;49.00;;;;;8.96;56.51;102612.19;5077259;27;45626;-71
2022/03/24 04:12:53;;;;;;;;;67.50;49.25;;;;;8.91;56.12;102607.72;5077232;27;45457;-71
2022/03/24 04:15:18;;;;;;;;;70.75;53.00;;;;;8.74;55.59;102587.34;5077298;27;45514;-71
2022/03/24 04:17:44;;;;;;;;;70.75;51.25;;;;;8.83;56.09;102600.63;5077421;27;45350;-71
2022/03/24 04:20:10;;;;;;;;;64.67;52.00;;;;;8.81;55.40;102598.81;5077671;27;45429;-72
2022/03/24 04:22:36;;;;;;;;;67.25;51.50;;;;;8.68;55.51;102589.88;5076785;27;46219;-72
2022/03/24 04:25:02;;;;;;;;;70.75;53.25;;;;;8.67;56.13;102598.59;5077032;27;45324;-72
2022/03/24 04:27:28;;;;;;;;;69.75;55.50;;;;;8.63;56.98;102602.06;5077199;28;45446;-71
2022/03/24 04:29:53;;;;;;;;;71.50;53.50;;;;;8.56;57.09;102589.72;5077894;27;45209;-72
2022/03/24 04:32:18;;;;;;;;;66.25;51.50;;;;;8.43;56.94;102564.97;5080777;27;45607;-71
2022/03/24 04:34:45;;;;;;;;;70.75;54.75;;;;;8.53;56.57;102580.91;5080566;27;45206;-71
2022/03/24 04:37:11;;;;;;;;;70.00;50.00;;;;;8.63;57.42;102602.94;5080597;27;45442;-71
2022/03/24 04:39:36;;;;;;;;;66.50;51.25;;;;;8.65;57.64;102602.97;5080775;27;45464;-71
2022/03/24 04:42:06;;;;;;;;;69.00;51.25;;;;;8.55;56.89;102586.19;5080260;27;46318;-71
2022/03/24 04:44:32;;;;;;;;;70.00;52.25;;;;;8.47;57.04;102575.56;5080572;27;45292;-71
2022/03/24 04:46:58;;;;;;;;;70.25;51.00;;;;;8.58;57.03;102594.09;5080416;27;45363;-71
2022/03/24 04:49:24;;;;;;;;;72.00;50.00;;;;;8.59;57.53;102595.88;5080304;27;45380;-71
2022/03/24 04:51:49;;;;;;;;;70.50;54.00;;;;;8.48;57.18;102577.34;5080377;27;45587;-71
2022/03/24 04:54:15;;;;;;;;;70.25;51.00;;;;;8.51;57.90;102593.13;5080247;27;45435;-71
2022/03/24 04:56:40;;;;;;;;;69.75;52.25;;;;;8.43;57.40;102585.97;5080510;27;45363;-71
2022/03/24 04:59:05;;;;;;;;;67.25;51.00;;;;;8.57;57.64;102607.22;5080539;27;45493;-71
2022/03/24 05:01:31;;;;;;;;;66.00;52.00;;;;;8.61;58.17;102614.28;5079385;27;45624;-71
2022/03/24 05:03:57;;;;;;;;;71.25;52.00;;;;;8.58;57.61;102604.59;5080354;27;45568;-71
2022/03/24 05:06:22;;;;;;;;;69.00;49.25;;;;;8.55;57.31;102607.19;5080199;28;45480;-71
2022/03/24 05:08:47;;;;;;;;;69.00;52.25;;;;;8.49;58.06;102607.97;5079965;28;45437;-71
2022/03/24 05:11:13;;;;;;;;;72.00;55.00;;;;;8.46;57.88;102607.06;5079625;28;46248;-71
2022/03/24 05:13:38;;;;;;;;;78.00;56.00;;;;;8.47;58.04;102607.06;5080012;27;45196;-71
2022/03/24 05:16:04;;;;;;;;;69.75;52.50;;;;;8.43;56.67;102604.34;5080150;28;45253;-71
2022/03/24 05:18:29;;;;;;;;;75.25;56.75;;;;;8.35;58.45;102607.72;5080010;28;45439;-71
2022/03/24 05:20:55;;;;;;;;;64.75;49.25;;;;;8.37;57.60;102599.88;5079751;27;45581;-71
2022/03/24 05:23:20;;;;;;;;;66.25;50.25;;;;;8.25;58.15;102591.78;5072517;28;45699;-71
2022/03/24 05:25:48;;;;;;;;;70.75;55.25;;;;;8.22;58.19;102597.88;5077751;28;45749;-71
2022/03/24 05:28:15;;;;;;;;;70.50;53.00;;;;;8.23;57.82;102606.63;5068907;27;45586;-71
2022/03/24 05:30:41;;;;;;;;;77.75;57.50;;;;;8.33;58.23;102616.44;5061106;27;46698;-71
2022/03/24 05:33:07;;;;;;;;;73.00;56.00;;;;;8.26;58.29;102604.06;5060934;28;45430;-71
2022/03/24 05:35:35;;;;;;;;;70.00;53.25;;;;;8.27;57.60;102608.47;5079723;27;45364;-71
2022/03/24 05:38:01;;;;;;;;;74.75;55.50;;;;;8.15;58.55;102594.25;5079583;27;45190;-71
2022/03/24 05:40:27;;;;;;;;;70.25;53.75;;;;;8.21;57.75;102608.38;5079409;27;47168;-71
2022/03/24 05:42:52;;;;;;;;;73.50;55.00;;;;;8.11;58.25;102604.69;5078182;28;45512;-72
2022/03/24 05:45:18;;;;;;;;;70.00;52.50;;;;;8.16;58.54;102614.41;5079302;27;45541;-71
2022/03/24 05:47:43;;;;;;;;;65.00;50.25;;;;;8.22;57.54;102618.88;5079764;28;45556;-71
2022/03/24 05:50:09;;;;;;;;;76.50;55.75;;;;;8.10;58.64;102606.41;5079021;27;47287;-71
2022/03/24 05:52:34;;;;;;;;;67.25;50.00;;;;;7.89;58.54;102580.69;5079274;28;45363;-71
2022/03/24 05:55:00;;;;;;;;;72.00;54.75;;;;;8.12;58.75;102624.81;5079282;27;45402;-71
2022/03/24 05:57:25;;;;;;;;;64.00;50.00;;;;;8.17;58.87;102633.66;5079462;27;45463;-71
2022/03/24 05:59:50;;;;;;;;;77.00;59.25;;;;;8.19;58.87;102630.19;5078508;28;45423;-71
2022/03/24 06:02:16;;;;;;;;;73.25;51.25;;;;;8.03;58.12;102601.94;5078857;28;45362;-71
2022/03/24 06:04:43;;;;;;;;;72.25;54.75;;;;;7.90;58.58;102576.31;5079487;27;45443;-71
2022/03/24 06:07:14;;;;;;;;;68.75;54.50;;;;;8.11;58.79;102613.44;5079366;27;45461;-71
2022/03/24 06:09:40;;;;;;;;;72.25;52.50;;;;;8.21;58.99;102624.97;5078833;27;47269;-71
2022/03/24 06:12:08;;;;;;;;;84.75;67.50;;;;;8.22;58.39;102616.25;5078380;27;45336;-71
2022/03/24 06:14:35;;;;;;;;;79.25;57.00;;;;;8.34;58.85;102623.44;5078989;28;45325;-71
2022/03/24 06:17:01;;;;;;;;;68.25;50.50;;;;;8.34;57.93;102632.19;5079389;27;45397;-71
2022/03/24 06:19:27;;;;;;;;;76.00;56.75;;;;;8.35;58.36;102625.19;5078652;27;47110;-71
2022/03/24 06:21:52;;;;;;;;;72.00;55.00;;;;;8.29;58.04;102612.88;5078805;27;45201;-71
2022/03/24 06:24:17;;;;;;;;;80.25;57.50;;;;;8.34;57.94;102624.31;5078689;27;45450;-71
2022/03/24 06:26:43;;;;;;;;;72.25;57.00;;;;;8.39;58.05;102626.16;5078671;28;45415;-71
2022/03/24 06:29:13;;;;;;;;;78.25;58.50;;;;;8.47;58.22;102640.31;5078740;27;46639;-70
2022/03/24 06:31:41;;;;;;;;;77.75;57.75;;;;;8.56;58.68;102645.72;5078180;27;45333;-71
2022/03/24 06:34:07;;;;;;;;;72.75;54.00;;;;;8.60;57.83;102639.66;5078685;27;45332;-72
2022/03/24 06:36:32;;;;;;;;;72.75;55.25;;;;;8.70;58.63;102644.19;5078739;27;45399;-72
2022/03/24 06:38:57;;;;;;;;;74.25;56.25;;;;;8.95;57.38;102638.44;5078425;27;47313;-72
2022/03/24 06:41:23;;;;;;;;;74.50;56.75;;;;;9.14;56.55;102639.59;5076205;27;45361;-70
2022/03/24 06:43:48;;;;;;;;;76.00;56.75;;;;;9.13;57.07;102629.91;5067832;27;45455;-69
2022/03/24 06:46:14;;;;;;;;;75.50;56.00;;;;;9.38;56.55;102634.66;5063795;28;45689;-71
2022/03/24 06:48:40;;;;;;;;;78.50;58.00;;;;;9.53;56.65;102646.22;5069719;27;47541;-71
2022/03/24 06:51:06;;;;;;;;;86.25;68.00;;;;;9.49;56.45;102629.50;5078177;27;45327;-71
2022/03/24 06:53:32;;;;;;;;;80.50;62.00;;;;;9.76;56.30;102649.13;5078007;27;45782;-71
2022/03/24 06:56:01;;;;;;;;;70.50;55.25;;;;;9.69;55.69;102627.13;5078806;27;45392;-71
2022/03/24 06:58:26;;;;;;;;;72.25;54.25;;;;;9.75;55.99;102635.06;5078063;27;46203;-71
2022/03/24 07:00:51;;;;;;;;;73.75;54.50;;;;;9.85;55.89;102648.34;5078326;27;45248;-71
2022/03/24 07:03:17;;;;;;;;;75.50;57.75;;;;;9.94;55.29;102628.25;5078341;28;45403;-71
2022/03/24 07:05:42;;;;;;;;;78.25;61.50;;;;;10.63;54.25;102635.94;5078400;27;45418;-71
2022/03/24 07:08:08;;;;;;;;;88.25;69.75;;;;;10.92;53.38;102640.53;5077390;27;47397;-71
2022/03/24 07:10:34;;;;;;;;;78.25;61.25;;;;;11.58;52.27;102623.25;5077709;27;45454;-70
2022/03/24 07:12:59;;;;;;;;;78.25;59.50;;;;;11.79;51.23;102630.34;5078153;27;45253;-70
2022/03/24 07:15:25;;;;;;;;;77.25;61.75;;;;;11.74;51.47;102622.44;5078234;27;45427;-71
2022/03/24 07:17:51;;;;;;;;;78.25;61.25;;;;;12.28;51.01;102648.94;5076925;27;46348;-69
2022/03/24 07:20:17;;;;;;;;;81.75;64.00;;;;;12.32;50.39;102642.78;5077721;27;45320;-70
2022/03/24 07:22:42;;;;;;;;;80.25;64.00;;;;;11.99;50.82;102622.50;5077688;28;46920;-71
2022/03/24 07:25:09;;;;;;;;;83.75;70.50;;;;;11.97;51.18;102650.69;5078012;28;45238;-71
2022/03/24 07:27:35;;;;;;;;;79.00;63.75;;;;;11.82;51.42;102633.00;5077543;27;46494;-71
2022/03/24 07:30:03;;;;;;;;;80.00;65.00;;;;;11.87;51.53;102633.03;5077231;27;45276;-72
2022/03/24 07:32:29;;;;;;;;;77.00;63.50;;;;;11.89;51.32;102639.19;5077869;27;45527;-71
2022/03/24 07:34:54;;;;;;;;;84.50;65.75;;;;;11.79;51.52;102625.06;5077672;27;45557;-72
2022/03/24 07:37:20;;;;;;;;;85.50;74.25;;;;;11.72;51.58;102602.19;5077681;27;46633;-72
2022/03/24 07:39:45;;;;;;;;;79.50;65.50;;;;;12.13;51.43;102648.94;5077411;27;45174;-72
2022/03/24 07:42:10;;;;;;;;;73.50;63.00;;;;;12.32;50.72;102634.88;5077385;28;45480;-72
2022/03/24 07:44:36;;;;;;;;;81.25;63.00;;;;;12.46;50.60;102641.91;5077913;28;45345;-72
2022/03/24 07:47:02;;;;;;;;;81.50;66.75;;;;;12.71;50.32;102663.94;5077544;27;46333;-73
2022/03/24 07:49:28;;;;;;;;;84.75;68.50;;;;;12.89;49.47;102652.44;5077549;28;45468;-72
2022/03/24 07:51:54;;;;;;;;;82.25;68.75;;;;;12.87;49.30;102652.44;5077475;27;45316;-72
2022/03/24 07:54:40;;;;;;;;;80.50;69.75;;;;;12.80;49.58;102656.00;5077721;27;45465;-72
2022/03/24 07:57:05;;;;;;;;;89.25;72.25;;;;;12.78;49.73;102655.13;5060343;28;46372;-73
2022/03/24 07:59:30;;;;;;;;;89.00;74.00;;;;;13.22;49.30;102661.19;5077345;27;45317;-72
2022/03/24 08:01:56;;;;;;;;;80.25;69.75;;;;;13.68;47.94;102650.47;5076913;28;45229;-72
2022/03/24 08:04:21;;;;;;;;;79.75;67.75;;;;;13.76;47.12;102656.56;5077894;27;45594;-73
2022/03/24 08:06:47;;;;;;;;;74.00;65.25;;;;;14.03;47.02;102656.41;5083838;28;45469;-72
2022/03/24 08:09:12;;;;;;;;;85.25;76.00;;;;;14.17;46.78;102649.25;5083673;27;45371;-72
2022/03/24 08:11:37;;;;;;;;;78.25;67.00;;;;;14.32;46.54;102647.38;5084039;27;45402;-72
2022/03/24 08:14:03;;;;;;;;;81.75;68.50;;;;;14.97;46.08;102651.25;5083329;27;45434;-72
2022/03/24 08:16:29;;;;;;;;;83.25;71.50;;;;;16.39;42.69;102666.25;5083793;27;46405;-72
2022/03/24 08:18:56;;;;;;;;;82.50;65.75;;;;;17.42;40.15;102644.84;5083691;27;45313;-73
2022/03/24 08:21:24;;;;;;;;;80.50;69.00;;;;;18.19;38.16;102665.34;5083608;27;45451;-72
2022/03/24 08:23:49;;;;;;;;;84.25;73.00;;;;;18.02;37.47;102665.75;5083858;27;45301;-72
2022/03/24 08:26:15;;;;;;;;;84.50;69.00;;;;;17.52;37.85;102667.72;5083596;27;46022;-72
2022/03/24 08:28:40;;;;;;;;;81.25;64.75;;;;;16.98;37.97;102666.13;5083232;27;45406;-73
2022/03/24 08:31:06;;;;;;;;;80.75;69.00;;;;;16.78;39.17;102659.34;5082836;27;45297;-73
2022/03/24 08:33:31;;;;;;;;;81.50;62.50;;;;;17.32;37.78;102674.31;5082382;27;45898;-73
2022/03/24 08:35:56;;;;;;;;;89.25;68.50;;;;;17.80;38.86;102675.97;5083374;27;46343;-73
2022/03/24 08:38:22;;;;;;;;;89.50;65.25;;;;;17.83;38.88;102630.59;5083543;28;45441;-73
2022/03/24 08:40:48;;;;;;;;;75.75;56.00;;;;;18.51;36.85;102660.13;5081911;27;45738;-73
2022/03/24 08:43:14;;;;;;;;;80.00;61.50;;;;;18.75;35.46;102643.50;5083655;28;45342;-73
2022/03/24 08:45:40;;;;;;;;;84.25;66.50;;;;;19.44;34.37;102650.50;5082172;27;46232;-73
2022/03/24 08:48:06;;;;;;;;;77.50;57.00;;;;;19.68;33.44;102648.91;5081671;28;45617;-73
2022/03/24 08:50:32;;;;;;;;;70.25;54.50;;;;;20.39;33.88;102648.44;5083023;27;45890;-73
2022/03/24 08:52:58;;;;;;;;;75.00;54.75;;;;;20.81;31.45;102658.63;5083851;27;45304;-73
2022/03/24 08:55:23;;;;;;;;;77.25;54.00;;;;;20.82;33.20;102665.75;5082294;27;47088;-73
2022/03/24 08:57:49;;;;;;;;;75.25;58.00;;;;;21.50;29.78;102657.91;5083015;27;45766;-73
2022/03/24 09:00:17;;;;;;;;;72.50;54.75;;;;;21.36;28.82;102667.34;5083553;27;45437;-73
2022/03/24 09:02:44;;;;;;;;;65.25;51.00;;;;;20.91;31.44;102678.78;5083346;27;45494;-73
2022/03/24 09:05:10;;;;;;;;;72.00;53.75;;;;;20.65;29.62;102668.97;5083182;27;46579;-73
2022/03/24 09:07:36;;;;;;;;;72.50;52.25;;;;;20.61;29.64;102670.03;5083203;27;45399;-72
2022/03/24 09:10:06;;;;;;;;;73.25;54.75;;;;;20.87;30.04;102677.19;5082828;27;45402;-72
2022/03/24 09:12:34;;;;;;;;;70.25;52.50;;;;;21.03;28.61;102681.03;5083242;27;45629;-72
2022/03/24 09:15:01;;;;;;;;;70.00;53.75;;;;;21.60;28.19;102683.47;5082497;27;46188;-72
2022/03/24 09:17:26;;;;;;;;;70.75;51.50;;;;;21.61;27.37;102673.59;5079779;27;45402;-72
2022/03/24 09:19:52;;;;;;;;;64.50;49.25;;;;;21.61;27.65;102665.56;5079795;28;45392;-72
2022/03/24 09:22:17;;;;;;;;;68.00;50.25;;;;;21.50;28.96;102682.91;5079058;27;45529;-72
2022/03/24 09:24:43;;;;;;;;;72.75;51.25;;;;;21.08;28.80;102666.63;5079306;27;45518;-72
2022/03/24 09:27:08;;;;;;;;;69.75;52.75;;;;;21.13;28.38;102673.56;5077894;28;45545;-73
2022/03/24 09:29:35;;;;;;;;;62.50;48.50;;;;;21.40;28.43;102679.69;5079267;27;45312;-72
2022/03/24 09:32:00;;;;;;;;;68.00;52.25;;;;;21.32;27.58;102672.84;5079979;27;45503;-72
2022/03/24 09:34:26;;;;;;;;;64.75;50.50;;;;;21.41;27.58;102667.16;5079403;27;46268;-73
2022/03/24 09:36:51;;;;;;;;;70.75;51.50;;;;;21.60;27.19;102687.97;5079564;27;45356;-73
2022/03/24 09:39:17;;;;;;;;;65.50;50.50;;;;;21.96;26.16;102674.91;5079579;27;45853;-73
2022/03/24 09:41:47;;;;;;;;;69.50;51.00;;;;;22.42;27.02;102686.47;5079514;28;45220;-73
2022/03/24 09:44:13;;;;;;;;;61.25;44.75;;;;;22.84;26.09;102670.38;5078996;27;45470;-71
2022/03/24 09:46:41;;;;;;;;;69.75;52.75;;;;;23.43;25.11;102669.53;5079067;27;45343;-71
2022/03/24 09:49:10;;;;;;;;;66.50;48.50;;;;;24.37;24.24;102684.78;5078201;27;45528;-74
2022/03/24 09:51:39;;;;;;;;;64.75;49.00;;;;;25.74;23.24;102687.50;5079327;27;45423;-70
2022/03/24 09:54:06;;;;;;;;;58.75;45.25;;;;;26.51;22.13;102685.78;5079136;27;46096;-70
2022/03/24 09:56:32;;;;;;;;;65.50;47.75;;;;;26.44;21.07;102677.16;5078988;27;45344;-71
2022/03/24 09:58:57;;;;;;;;;61.50;46.50;;;;;26.78;24.03;102668.88;5079031;27;45351;-69
2022/03/24 10:01:22;;;;;;;;;62.25;48.75;;;;;26.81;22.44;102682.22;5079574;27;45438;-69
2022/03/24 10:04:02;;;;;;;;;66.75;51.75;;;;;27.00;21.20;102677.44;5077145;27;46957;-70
2022/03/24 10:06:28;;;;;;;;;66.75;52.00;;;;;27.54;20.43;102671.34;5078994;27;45396;-69
2022/03/24 10:08:53;;;;;;;;;101.25;94.50;;;;;28.09;21.46;102671.44;5078914;28;45934;-69
2022/03/24 10:11:20;;;;;;;;;66.25;49.75;;;;;28.70;20.61;102671.84;5077706;27;45431;-69
2022/03/24 10:13:53;;;;;;;;;63.00;51.00;;;;;28.65;20.36;102679.41;5077229;27;45620;-69
2022/03/24 10:16:34;;;;;;;;;59.50;47.50;;;;;28.86;19.32;102677.06;5077151;27;45418;-69
2022/03/24 10:19:05;;;;;;;;;59.75;46.25;;;;;29.73;19.89;102682.63;5077235;27;45488;-68
2022/03/24 10:21:41;;;;;;;;;64.50;49.75;;;;;30.51;18.55;102680.44;5077199;27;45526;-68
2022/03/24 10:24:14;;;;;;;;;59.75;48.50;;;;;31.28;17.48;102673.53;5077009;27;46103;-68
2022/03/24 10:26:48;;;;;;;;;61.25;46.25;;;;;31.78;17.43;102676.72;5078364;27;45485;-68
2022/03/24 10:29:17;;;;;;;;;57.50;45.00;;;;;32.15;18.45;102667.34;5076861;28;45370;-69
2022/03/24 10:31:43;;;;;;;;;65.25;48.25;;;;;32.32;18.15;102671.34;5077438;27;45291;-69
2022/03/24 10:34:12;;;;;;;;;62.25;46.25;;;;;32.35;18.15;102679.25;5076423;27;46428;-70
2022/03/24 10:36:41;;;;;;;;;55.75;45.50;;;;;32.00;16.41;102666.75;5076932;27;45763;-70
2022/03/24 10:39:08;;;;;;;;;59.75;44.75;;;;;31.72;16.61;102663.63;5077774;27;45591;-67
2022/03/24 10:41:38;;;;;;;;;55.75;44.00;;;;;31.13;17.67;102664.75;5078454;27;45228;-67
2022/03/24 10:44:07;;;;;;;;;55.50;44.25;;;;;30.62;18.46;102669.59;5078126;27;46242;-68
2022/03/24 10:46:35;;;;;;;;;56.00;44.50;;;;;29.90;18.71;102677.78;5077286;27;45243;-66
2022/03/24 10:49:23;;;;;;;;;51.00;40.25;;;;;28.74;19.11;102667.06;5077726;27;45468;-66
2022/03/24 10:51:50;;;;;;;;;54.75;44.50;;;;;27.85;19.51;102654.94;5076531;28;45409;-71
2022/03/24 10:54:15;;;;;;;;;57.00;45.00;;;;;27.23;19.59;102665.16;5076673;27;46553;-69
2022/03/24 10:56:50;;;;;;;;;50.00;40.25;;;;;26.74;20.33;102660.13;5077243;27;45485;-68
2022/03/24 10:59:16;;;;;;;;;49.75;39.25;;;;;26.38;19.57;102653.22;5076545;27;45450;-66
2022/03/24 11:01:42;;;;;;;;;53.25;41.00;;;;;25.80;19.85;102668.28;5076851;28;45457;-70
2022/03/24 11:04:08;;;;;;;;;50.00;39.25;;;;;25.25;19.68;102662.25;5077106;27;46164;-68
2022/03/24 11:06:34;;;;;;;;;49.75;38.50;;;;;24.78;20.06;102658.47;5077074;28;45439;-70
2022/03/24 11:09:01;;;;;;;;;51.50;39.50;;;;;24.51;21.01;102674.19;5077358;27;45454;-69
2022/03/24 11:11:28;;;;;;;;;45.33;36.00;;;;;23.95;20.65;102668.03;5077552;27;45370;-68